Time;durP1;ratioP1;P1;durP2;ratioP2;P2;SDS_P1;SDS_P2;PMS_P1;PMS_P2;Temp;Humidity;BMP_temperature;BMP_pressure;BME280_temperature;BME280_humidity;BME280_pressure;Samples;Min_cycle;Max_cycle;Signal;HPM_P1;HPM_P2
2022/04/10 00:02:17;;;;;;;11.77;11.37;;;3.40;99.90;;;;;;5084365;28;20234;-82
2022/04/10 00:04:59;;;;;;;11.90;11.50;;;3.40;99.90;;;;;;5084287;28;20283;-83
2022/04/10 00:07:40;;;;;;;11.67;11.27;;;3.40;99.90;;;;;;5085605;28;20284;-83
2022/04/10 00:10:22;;;;;;;11.70;11.30;;;3.50;99.90;;;;;;5086396;28;20229;-83
2022/04/10 00:13:02;;;;;;;11.37;10.97;;;3.50;99.90;;;;;;5101188;28;20210;-82
2022/04/10 00:15:44;;;;;;;11.80;11.40;;;3.40;99.90;;;;;;5089946;28;20217;-83
2022/04/10 00:18:18;;;;;;;11.73;11.33;;;3.40;99.90;;;;;;5085452;28;20233;-83
2022/04/10 00:20:57;;;;;;;11.63;11.23;;;3.40;99.90;;;;;;5084522;28;20253;-82
2022/04/10 00:23:34;;;;;;;11.60;11.20;;;3.40;99.90;;;;;;5084250;28;20991;-82
2022/04/10 00:29:14;;;;;;;11.90;11.50;;;3.30;99.90;;;;;;5084317;28;20223;-82
2022/04/10 00:31:51;;;;;;;11.83;11.43;;;3.30;99.90;;;;;;5084161;28;20318;-83
2022/04/10 00:40:00;;;;;;;11.60;11.20;;;3.40;99.90;;;;;;5082553;28;20296;-83
2022/04/10 00:54:01;;;;;;;11.90;11.50;;;3.40;99.90;;;;;;5101039;28;20206;-82
2022/04/10 00:59:38;;;;;;;11.60;11.20;;;3.30;99.90;;;;;;5183396;27;20550;-82
2022/04/10 01:08:24;;;;;;;11.57;11.17;;;3.10;99.90;;;;;;5158723;27;20229;-83
2022/04/10 01:11:02;;;;;;;11.90;11.50;;;3.00;99.90;;;;;;5181345;27;20294;-82
2022/04/10 01:13:39;;;;;;;11.80;11.40;;;2.90;99.90;;;;;;5181989;27;20250;-82
2022/04/10 01:16:11;;;;;;;11.63;11.23;;;2.90;99.90;;;;;;5181673;27;20666;-82
2022/04/10 01:18:47;;;;;;;11.70;11.30;;;2.90;99.90;;;;;;5181649;27;20280;-82
2022/04/10 01:21:26;;;;;;;11.87;11.47;;;2.90;99.90;;;;;;5181629;27;20222;-83
2022/04/10 01:26:43;;;;;;;11.90;11.50;;;2.80;99.90;;;;;;5181306;27;20235;-82
2022/04/10 01:29:25;;;;;;;11.80;11.40;;;2.80;99.90;;;;;;5181153;27;20222;-82
2022/04/10 01:32:01;;;;;;;11.70;11.30;;;2.80;99.90;;;;;;5181389;27;20272;-82
2022/04/10 01:34:40;;;;;;;11.90;11.50;;;2.70;99.90;;;;;;5181055;27;20230;-82
2022/04/10 01:37:26;;;;;;;11.67;11.27;;;2.60;99.90;;;;;;5180549;27;20226;-82
2022/04/10 01:40:16;;;;;;;11.70;11.30;;;2.60;99.90;;;;;;5181500;27;20219;-82
2022/04/10 01:42:53;;;;;;;11.90;11.50;;;2.50;99.90;;;;;;5180198;27;20324;-82
2022/04/10 01:45:32;;;;;;;11.80;11.40;;;2.50;99.90;;;;;;5180767;27;20219;-83
2022/04/10 01:48:09;;;;;;;11.73;11.33;;;2.50;99.90;;;;;;5179982;27;20282;-82
2022/04/10 01:53:32;;;;;;;12.00;11.60;;;2.30;99.90;;;;;;5179599;27;20248;-83
2022/04/10 01:56:10;;;;;;;12.10;11.70;;;2.30;99.90;;;;;;5180629;27;20252;-82
2022/04/10 01:58:43;;;;;;;11.90;11.50;;;2.30;99.90;;;;;;5179437;27;20234;-81
2022/04/10 02:01:20;;;;;;;11.97;11.57;;;2.20;99.90;;;;;;5180819;27;20221;-82
2022/04/10 02:03:58;;;;;;;11.90;11.50;;;2.30;99.90;;;;;;5180056;27;20321;-82
2022/04/10 02:06:38;;;;;;;12.03;11.63;;;2.30;99.90;;;;;;5180490;27;20242;-83
2022/04/10 02:09:14;;;;;;;12.10;11.70;;;2.30;99.90;;;;;;5176201;27;20325;-82
2022/04/10 02:14:47;;;;;;;11.80;11.40;;;2.20;99.90;;;;;;5165887;27;20215;-82
2022/04/10 02:17:18;;;;;;;12.10;11.70;;;2.20;99.90;;;;;;5166573;27;20231;-81
2022/04/10 02:19:48;;;;;;;11.83;11.43;;;2.20;99.90;;;;;;5166444;27;20227;-82
2022/04/10 02:22:25;;;;;;;12.00;11.60;;;2.20;99.90;;;;;;5166381;27;20227;-82
2022/04/10 02:24:55;;;;;;;11.80;11.40;;;2.10;99.90;;;;;;5171422;27;20237;-82
2022/04/10 02:27:33;;;;;;;11.83;11.43;;;2.20;99.90;;;;;;5177076;27;20715;-82
2022/04/10 02:30:12;;;;;;;11.60;11.20;;;2.10;99.90;;;;;;5176557;27;20219;-80
2022/04/10 02:32:56;;;;;;;11.70;11.30;;;2.10;99.90;;;;;;5176449;27;20204;-81
2022/04/10 02:35:26;;;;;;;12.17;11.77;;;2.00;99.90;;;;;;5184105;27;20224;-80
2022/04/10 02:38:08;;;;;;;11.93;11.53;;;2.00;99.90;;;;;;5182262;27;20265;-82
2022/04/10 02:40:44;;;;;;;12.13;11.73;;;2.00;99.90;;;;;;5166753;27;20223;-83
2022/04/10 02:43:23;;;;;;;12.00;11.60;;;2.00;99.90;;;;;;5165940;27;20280;-82
2022/04/10 02:45:53;;;;;;;12.07;11.67;;;2.00;99.90;;;;;;5166159;27;20231;-82
2022/04/10 02:48:23;;;;;;;11.70;11.30;;;1.90;99.90;;;;;;5165513;27;20231;-82
2022/04/10 02:50:58;;;;;;;12.00;11.60;;;1.90;99.90;;;;;;5165267;27;20231;-83
2022/04/10 02:53:29;;;;;;;11.93;11.53;;;1.90;99.90;;;;;;5165211;27;20258;-83
2022/04/10 02:55:58;;;;;;;12.00;11.60;;;1.90;99.90;;;;;;5166297;27;20231;-82
2022/04/10 02:58:33;;;;;;;12.10;11.70;;;1.80;99.90;;;;;;5165016;27;20238;-83
2022/04/10 03:01:18;;;;;;;12.17;11.77;;;1.80;99.90;;;;;;5165382;27;20233;-82
2022/04/10 03:04:03;;;;;;;12.10;11.70;;;1.90;99.90;;;;;;5165865;27;20235;-83
2022/04/10 03:06:49;;;;;;;12.20;11.80;;;1.80;99.90;;;;;;5166113;27;20234;-82
2022/04/10 03:09:36;;;;;;;11.93;11.53;;;1.80;99.90;;;;;;5165909;27;20227;-83
2022/04/10 03:12:14;;;;;;;11.97;11.57;;;1.80;99.90;;;;;;5164721;27;20246;-83
2022/04/10 03:18:05;;;;;;;12.00;11.60;;;1.80;99.90;;;;;;5164488;27;20235;-83
2022/04/10 03:23:31;;;;;;;12.07;11.67;;;1.80;99.90;;;;;;5164683;27;20224;-82
2022/04/10 03:26:05;;;;;;;12.20;11.80;;;1.80;99.90;;;;;;5165388;27;20211;-83
2022/04/10 03:28:46;;;;;;;11.93;11.53;;;1.70;99.90;;;;;;5164367;27;20232;-83
2022/04/10 03:31:29;;;;;;;12.10;11.70;;;1.70;99.90;;;;;;5164901;27;20223;-83
2022/04/10 03:34:06;;;;;;;11.80;11.40;;;1.70;99.90;;;;;;5165069;27;20230;-83
2022/04/10 03:36:39;;;;;;;12.10;11.70;;;1.70;99.90;;;;;;5164329;27;20250;-83
2022/04/10 03:39:12;;;;;;;12.17;11.77;;;1.70;99.90;;;;;;5164370;27;20242;-82
2022/04/10 03:41:41;;;;;;;11.87;11.47;;;1.70;99.90;;;;;;5165255;27;20215;-83
2022/04/10 03:44:12;;;;;;;11.90;11.50;;;1.70;99.90;;;;;;5164387;27;20266;-83
2022/04/10 03:49:55;;;;;;;12.00;11.60;;;1.70;99.90;;;;;;5164284;27;20258;-83
2022/04/10 03:52:25;;;;;;;11.90;11.50;;;1.70;99.90;;;;;;5164882;27;20292;-82
2022/04/10 03:55:01;;;;;;;12.10;11.70;;;1.70;99.90;;;;;;5165216;27;20227;-82
2022/04/10 03:57:31;;;;;;;12.10;11.70;;;1.70;99.90;;;;;;5163742;27;20231;-83
2022/04/10 04:00:10;;;;;;;12.00;11.60;;;1.60;99.90;;;;;;5164873;27;20230;-82
2022/04/10 04:02:48;;;;;;;11.93;11.53;;;1.60;99.90;;;;;;5165238;27;20256;-82
2022/04/10 04:05:19;;;;;;;12.07;11.67;;;1.60;99.90;;;;;;5164801;27;20211;-83
2022/04/10 04:07:47;;;;;;;12.00;11.60;;;1.50;99.90;;;;;;5164781;27;20219;-83
2022/04/10 04:13:12;;;;;;;12.30;11.90;;;1.40;99.90;;;;;;5166270;27;20314;-83
2022/04/10 04:15:43;;;;;;;12.13;11.73;;;1.40;99.90;;;;;;5166347;27;20228;-82
2022/04/10 04:18:27;;;;;;;12.20;11.80;;;1.40;99.90;;;;;;5165168;27;20255;-82
2022/04/10 04:20:58;;;;;;;12.30;11.90;;;1.40;99.90;;;;;;5165044;27;20227;-83
2022/04/10 04:23:26;;;;;;;12.30;11.90;;;1.40;99.90;;;;;;5165706;27;20256;-84
2022/04/10 04:25:59;;;;;;;12.20;11.80;;;1.40;99.90;;;;;;5164092;27;20220;-84
2022/04/10 04:28:28;;;;;;;12.17;11.77;;;1.40;99.90;;;;;;5164900;27;20224;-81
2022/04/10 04:30:58;;;;;;;12.33;11.93;;;1.40;99.90;;;;;;5165004;27;20227;-82
2022/04/10 04:33:33;;;;;;;12.17;11.77;;;1.40;99.90;;;;;;5164841;27;20233;-82
2022/04/10 04:36:02;;;;;;;12.40;12.00;;;1.30;99.90;;;;;;5165372;27;20227;-83
2022/04/10 04:38:30;;;;;;;12.20;11.80;;;1.30;99.90;;;;;;5180040;22;20272;-80
2022/04/10 04:40:58;;;;;;;12.10;11.70;;;1.30;99.90;;;;;;5099414;28;20230;-79
2022/04/10 04:43:26;;;;;;;12.27;11.87;;;1.30;99.90;;;;;;5099149;28;20240;-80
2022/04/10 04:45:53;;;;;;;12.20;11.80;;;1.30;99.90;;;;;;5099677;28;20233;-79
2022/04/10 04:48:21;;;;;;;12.30;11.90;;;1.30;99.90;;;;;;5100025;28;20233;-79
2022/04/10 04:50:50;;;;;;;12.10;11.70;;;1.30;99.90;;;;;;5107204;28;20229;-79
2022/04/10 04:53:18;;;;;;;12.27;11.87;;;1.30;99.90;;;;;;5105574;28;20233;-79
2022/04/10 04:55:45;;;;;;;12.20;11.80;;;1.30;99.90;;;;;;5111169;28;20240;-79
2022/04/10 04:58:13;;;;;;;11.90;11.50;;;1.30;99.90;;;;;;5111827;28;20222;-80
2022/04/10 05:00:41;;;;;;;12.07;11.67;;;1.30;99.90;;;;;;5102842;28;20233;-79
2022/04/10 05:03:08;;;;;;;12.00;11.60;;;1.30;99.90;;;;;;5100448;28;20320;-79
2022/04/10 05:05:36;;;;;;;12.03;11.63;;;1.30;99.90;;;;;;5100616;28;20233;-80
2022/04/10 05:08:06;;;;;;;12.10;11.70;;;1.30;99.90;;;;;;5099813;28;20257;-80
2022/04/10 05:10:34;;;;;;;11.90;11.50;;;1.40;99.90;;;;;;5099505;28;20225;-79
2022/04/10 05:13:02;;;;;;;11.97;11.57;;;1.50;99.90;;;;;;5099868;28;20271;-79
2022/04/10 05:15:29;;;;;;;12.03;11.63;;;1.50;99.90;;;;;;5107936;28;20229;-80
2022/04/10 05:17:57;;;;;;;11.70;11.30;;;1.50;99.90;;;;;;5109117;28;21037;-79
2022/04/10 05:20:24;;;;;;;11.90;11.50;;;1.50;99.90;;;;;;5107436;28;20287;-79
2022/04/10 05:22:52;;;;;;;11.90;11.50;;;1.60;99.90;;;;;;5104154;28;20233;-80
2022/04/10 05:25:21;;;;;;;11.93;11.53;;;1.60;99.90;;;;;;5103753;28;20765;-79
2022/04/10 05:27:49;;;;;;;11.67;11.27;;;1.70;99.90;;;;;;5102084;28;20229;-79
2022/04/10 05:30:17;;;;;;;11.80;11.40;;;1.70;99.90;;;;;;5104387;28;20233;-79
2022/04/10 05:32:45;;;;;;;11.13;10.83;;;1.70;99.90;;;;;;5102971;28;20280;-80
2022/04/10 05:35:14;;;;;;;11.50;11.10;;;1.80;99.90;;;;;;5100489;28;20225;-79
2022/04/10 05:37:41;;;;;;;11.53;11.13;;;1.90;99.90;;;;;;5100829;28;20328;-80
2022/04/10 05:40:11;;;;;;;11.03;10.73;;;1.90;99.90;;;;;;5100074;28;20260;-79
2022/04/10 05:42:46;;;;;;;11.20;10.90;;;2.00;99.90;;;;;;5099359;28;20328;-79
2022/04/10 05:45:14;;;;;;;11.20;10.90;;;2.10;99.90;;;;;;5101473;28;20228;-80
2022/04/10 05:47:43;;;;;;;11.13;10.83;;;2.10;99.90;;;;;;5102649;28;20225;-80
2022/04/10 05:50:13;;;;;;;10.80;10.50;;;2.10;99.90;;;;;;5102308;28;20258;-80
2022/04/10 05:52:41;;;;;;;10.60;10.30;;;2.20;99.90;;;;;;5102373;28;20233;-79
2022/04/10 05:55:10;;;;;;;10.40;10.10;;;2.30;99.90;;;;;;5102604;28;20283;-79
2022/04/10 05:57:39;;;;;;;10.30;10.00;;;2.30;99.90;;;;;;5102885;28;20282;-80
2022/04/10 06:00:12;;;;;;;10.30;10.00;;;2.30;99.90;;;;;;5102561;28;20238;-79
2022/04/10 06:02:40;;;;;;;10.00;9.70;;;2.40;99.90;;;;;;5102268;28;20298;-80
2022/04/10 06:05:09;;;;;;;10.23;9.93;;;2.40;99.90;;;;;;5101775;28;20249;-80
2022/04/10 06:07:37;;;;;;;10.17;9.87;;;2.40;99.90;;;;;;5102059;28;20233;-79
2022/04/10 06:10:06;;;;;;;10.50;10.20;;;2.50;99.90;;;;;;5103017;28;20275;-79
2022/04/10 06:12:34;;;;;;;10.37;10.07;;;2.50;99.90;;;;;;5101646;28;20229;-80
2022/04/10 06:15:02;;;;;;;10.20;9.90;;;2.60;99.90;;;;;;5102210;28;20226;-80
2022/04/10 06:17:31;;;;;;;10.00;9.70;;;2.60;99.90;;;;;;5102090;28;20250;-79
2022/04/10 06:19:59;;;;;;;10.20;9.90;;;2.60;99.90;;;;;;5102007;28;20229;-80
2022/04/10 06:22:27;;;;;;;10.20;9.90;;;2.70;99.90;;;;;;5102594;28;20229;-80
2022/04/10 06:24:55;;;;;;;10.17;9.87;;;2.80;99.90;;;;;;5101838;28;20316;-80
2022/04/10 06:27:24;;;;;;;10.10;9.80;;;2.90;99.90;;;;;;5102746;28;20233;-80
2022/04/10 06:29:51;;;;;;;10.30;10.00;;;3.00;99.90;;;;;;5103138;28;20252;-80
2022/04/10 06:32:19;;;;;;;10.00;9.70;;;3.10;99.90;;;;;;5115156;28;20217;-78
2022/04/10 06:34:48;;;;;;;10.30;10.00;;;3.20;99.90;;;;;;5121281;27;20217;-79
2022/04/10 06:37:16;;;;;;;9.90;9.60;;;3.30;99.90;;;;;;5109327;27;20225;-79
2022/04/10 06:39:44;;;;;;;10.37;10.07;;;3.40;99.90;;;;;;5101790;28;20326;-80
2022/04/10 06:42:11;;;;;;;10.27;9.97;;;3.50;99.90;;;;;;5102139;28;20233;-80
2022/04/10 06:44:42;;;;;;;10.10;9.80;;;3.50;99.90;;;;;;5102041;28;20230;-79
2022/04/10 06:47:10;;;;;;;10.00;9.70;;;3.60;99.90;;;;;;5108811;28;20232;-80
2022/04/10 06:49:38;;;;;;;10.20;9.90;;;3.60;99.90;;;;;;5102776;28;20276;-79
2022/04/10 06:52:08;;;;;;;10.07;9.77;;;3.60;99.90;;;;;;5102546;28;20243;-80
2022/04/10 06:54:36;;;;;;;10.03;9.73;;;3.60;99.90;;;;;;5102306;28;20257;-79
2022/04/10 06:57:06;;;;;;;10.37;10.07;;;3.70;99.90;;;;;;5102338;28;20229;-79
2022/04/10 06:59:34;;;;;;;10.30;10.00;;;3.70;99.90;;;;;;5102303;28;20244;-79
2022/04/10 07:02:02;;;;;;;10.33;10.03;;;3.70;99.90;;;;;;5102223;28;20229;-79
2022/04/10 07:04:30;;;;;;;10.70;10.40;;;3.90;99.90;;;;;;5101681;28;20446;-79
2022/04/10 07:06:57;;;;;;;10.47;10.17;;;3.90;99.90;;;;;;5106277;28;20225;-80
2022/04/10 07:09:26;;;;;;;10.10;9.80;;;4.00;99.90;;;;;;5104259;28;20233;-79
2022/04/10 07:11:54;;;;;;;10.13;9.83;;;4.10;99.90;;;;;;5103134;28;20287;-80
2022/04/10 07:14:22;;;;;;;10.33;10.03;;;4.20;99.90;;;;;;5102363;28;20255;-80
2022/04/10 07:16:49;;;;;;;10.30;10.00;;;4.20;99.90;;;;;;5101825;28;20287;-80
2022/04/10 07:19:18;;;;;;;10.00;9.70;;;4.30;99.90;;;;;;5103264;28;20237;-80
2022/04/10 07:24:33;;;;;;;10.20;9.90;;;4.60;99.90;;;;;;5105198;28;20213;-81
2022/04/10 07:27:01;;;;;;;10.10;9.80;;;4.60;99.90;;;;;;5103916;28;20228;-80
2022/04/10 07:29:29;;;;;;;10.00;9.70;;;4.60;99.90;;;;;;5103630;28;20241;-80
2022/04/10 07:31:57;;;;;;;10.20;9.90;;;4.80;99.90;;;;;;5102008;28;20234;-82
2022/04/10 07:34:24;;;;;;;10.20;9.90;;;5.00;99.90;;;;;;5102087;28;20245;-82
2022/04/10 07:36:52;;;;;;;10.20;9.90;;;4.90;99.90;;;;;;5101911;28;20226;-81
2022/04/10 07:39:20;;;;;;;10.37;10.07;;;4.80;99.90;;;;;;5101725;28;20230;-82
2022/04/10 07:41:49;;;;;;;10.40;10.10;;;4.90;99.90;;;;;;5102824;28;20252;-82
2022/04/10 07:44:17;;;;;;;10.47;10.17;;;4.80;99.90;;;;;;5102535;28;20228;-81
2022/04/10 07:49:30;;;;;;;10.20;9.90;;;4.60;99.90;;;;;;5108200;28;20255;-80
2022/04/10 07:51:58;;;;;;;10.23;9.93;;;4.60;99.90;;;;;;5110779;28;20240;-81
2022/04/10 07:54:25;;;;;;;10.27;9.97;;;4.80;99.90;;;;;;5110979;28;20283;-81
2022/04/10 07:56:54;;;;;;;10.50;10.20;;;5.10;99.90;;;;;;5110952;28;20226;-81
2022/04/10 07:59:23;;;;;;;10.17;9.87;;;5.10;99.90;;;;;;5104274;28;20331;-81
2022/04/10 08:01:51;;;;;;;9.97;9.67;;;5.10;99.90;;;;;;5101539;28;20237;-81
2022/04/10 08:04:18;;;;;;;9.87;9.57;;;5.30;99.90;;;;;;5102687;28;20306;-84
2022/04/10 08:06:46;;;;;;;10.03;9.73;;;5.40;99.90;;;;;;5101857;28;20229;-81
2022/04/10 08:09:14;;;;;;;10.00;9.70;;;5.70;99.90;;;;;;5103039;28;20239;-81
2022/04/10 08:11:42;;;;;;;10.00;9.70;;;5.80;99.90;;;;;;5100944;28;20225;-81
2022/04/10 08:14:11;;;;;;;10.00;9.70;;;5.80;99.90;;;;;;5100999;28;20236;-81
2022/04/10 08:16:39;;;;;;;10.00;9.70;;;5.90;99.90;;;;;;5100906;28;20283;-80
2022/04/10 08:19:06;;;;;;;10.10;9.80;;;6.00;99.90;;;;;;5100104;28;20234;-80
2022/04/10 08:21:34;;;;;;;10.17;9.87;;;6.00;99.90;;;;;;5100282;28;20233;-80
2022/04/10 08:24:02;;;;;;;10.47;10.17;;;6.20;99.90;;;;;;5099985;28;20268;-81
2022/04/10 08:26:30;;;;;;;10.47;10.17;;;6.10;99.90;;;;;;5100766;28;20249;-80
2022/04/10 08:28:57;;;;;;;10.07;9.77;;;6.10;99.90;;;;;;5101219;28;20680;-80
2022/04/10 08:31:28;;;;;;;10.10;9.80;;;5.90;99.90;;;;;;5100762;28;20314;-79
2022/04/10 08:33:56;;;;;;;10.30;10.00;;;5.70;99.90;;;;;;5103078;28;20312;-79
2022/04/10 08:36:23;;;;;;;10.20;9.90;;;5.60;99.90;;;;;;5104863;28;20288;-80
2022/04/10 08:38:51;;;;;;;9.83;9.53;;;5.70;99.90;;;;;;5107136;28;20241;-79
2022/04/10 08:41:23;;;;;;;10.23;9.93;;;6.00;99.90;;;;;;5109996;28;20237;-82
2022/04/10 08:43:53;;;;;;;9.63;9.33;;;6.20;99.90;;;;;;5109922;28;20229;-81
2022/04/10 08:46:22;;;;;;;9.63;9.33;;;6.30;99.90;;;;;;5104005;28;20236;-81
2022/04/10 08:48:51;;;;;;;9.60;9.30;;;6.40;99.90;;;;;;5103218;28;20237;-81
2022/04/10 08:51:20;;;;;;;9.43;9.13;;;6.20;99.90;;;;;;5102593;28;20221;-81
2022/04/10 08:53:48;;;;;;;9.80;9.50;;;5.90;99.90;;;;;;5102156;28;20244;-81
2022/04/10 08:56:16;;;;;;;9.63;9.33;;;5.90;99.90;;;;;;5102121;28;20244;-81
2022/04/10 08:58:43;;;;;;;9.80;9.50;;;6.10;99.90;;;;;;5100231;28;20260;-80
2022/04/10 09:01:12;;;;;;;9.70;9.40;;;6.00;99.90;;;;;;5101669;28;20237;-81
2022/04/10 09:03:40;;;;;;;9.63;9.33;;;6.00;99.90;;;;;;5100646;28;20229;-80
2022/04/10 09:06:13;;;;;;;9.50;9.20;;;6.20;99.90;;;;;;5100544;28;20225;-79
2022/04/10 09:08:41;;;;;;;9.60;9.30;;;6.50;99.90;;;;;;5099112;28;20263;-80
2022/04/10 09:11:10;;;;;;;9.83;9.53;;;6.70;99.90;;;;;;5099877;28;20229;-80
2022/04/10 09:13:41;;;;;;;9.27;8.97;;;7.20;99.90;;;;;;5098996;28;20287;-78
2022/04/10 09:16:15;;;;;;;9.70;9.40;;;7.50;99.90;;;;;;5098870;28;20222;-79
2022/04/10 09:18:55;;;;;;;9.40;9.10;;;7.20;99.90;;;;;;5097323;28;20235;-78
2022/04/10 09:21:29;;;;;;;9.30;9.00;;;7.10;99.90;;;;;;5101102;28;20237;-79
2022/04/10 09:24:02;;;;;;;9.80;9.50;;;6.80;99.90;;;;;;5101235;28;20316;-79
2022/04/10 09:26:45;;;;;;;9.83;9.53;;;6.60;99.90;;;;;;5101154;28;20233;-79
2022/04/10 09:29:13;;;;;;;9.60;9.30;;;6.60;99.90;;;;;;5100888;28;20237;-79
2022/04/10 09:31:42;;;;;;;9.50;9.20;;;6.60;99.90;;;;;;5102384;28;20237;-80
2022/04/10 09:34:12;;;;;;;9.60;9.30;;;6.50;99.90;;;;;;5101017;28;20701;-79
2022/04/10 09:36:44;;;;;;;9.83;9.53;;;6.40;99.90;;;;;;5099657;28;20229;-79
2022/04/10 09:39:14;;;;;;;9.60;9.30;;;6.20;99.90;;;;;;5098457;28;20244;-79
2022/04/10 09:41:45;;;;;;;9.60;9.30;;;6.30;99.90;;;;;;5097600;28;20315;-79
2022/04/10 09:44:17;;;;;;;9.80;9.50;;;6.40;99.90;;;;;;5097277;28;20218;-79
2022/04/10 09:46:45;;;;;;;9.63;9.33;;;6.70;99.90;;;;;;5096722;28;20264;-79
2022/04/10 09:49:14;;;;;;;9.50;9.20;;;7.20;99.90;;;;;;5094742;28;20263;-79
2022/04/10 09:52:04;;;;;;;9.40;9.10;;;7.70;99.90;;;;;;5097205;28;20229;-81
2022/04/10 09:54:37;;;;;;;9.40;9.10;;;8.20;99.90;;;;;;5096830;28;20233;-81
2022/04/10 09:57:07;;;;;;;9.20;8.90;;;8.40;99.90;;;;;;5098251;28;20287;-79
2022/04/10 09:59:40;;;;;;;9.50;9.20;;;8.50;99.90;;;;;;5098602;28;20256;-80
2022/04/10 10:02:09;;;;;;;9.40;9.10;;;8.50;99.90;;;;;;5097808;28;20236;-80
2022/04/10 10:04:38;;;;;;;9.73;9.43;;;8.40;99.90;;;;;;5098712;28;20233;-79
2022/04/10 10:07:11;;;;;;;9.90;9.60;;;8.40;99.90;;;;;;5099878;28;20288;-80
2022/04/10 10:09:39;;;;;;;9.80;9.50;;;8.50;99.90;;;;;;5098222;28;20234;-80
2022/04/10 10:12:09;;;;;;;9.80;9.50;;;8.30;99.90;;;;;;5099471;28;20279;-80
2022/04/10 10:14:38;;;;;;;9.70;9.40;;;8.20;99.90;;;;;;5098400;28;20229;-79
2022/04/10 10:17:07;;;;;;;9.50;9.20;;;8.00;99.90;;;;;;5102180;28;20249;-79
2022/04/10 10:19:38;;;;;;;9.90;9.60;;;7.90;99.90;;;;;;5102216;28;20283;-78
2022/04/10 10:22:09;;;;;;;9.43;9.13;;;8.10;99.90;;;;;;5104605;28;20347;-78
2022/04/10 10:24:49;;;;;;;9.60;9.30;;;8.10;99.90;;;;;;5118379;28;20244;-79
2022/04/10 10:27:51;;;;;;;9.50;9.20;;;8.40;99.90;;;;;;5119667;27;20214;-80
2022/04/10 10:30:26;;;;;;;9.90;9.60;;;9.00;99.90;;;;;;5102253;28;20216;-79
2022/04/10 10:32:57;;;;;;;9.73;9.43;;;9.10;99.90;;;;;;5099510;28;20233;-80
2022/04/10 10:35:35;;;;;;;9.80;9.50;;;8.80;99.90;;;;;;5098019;28;20233;-81
2022/04/10 10:38:19;;;;;;;10.00;9.70;;;9.00;99.90;;;;;;5100862;28;20237;-81
2022/04/10 10:40:47;;;;;;;9.80;9.50;;;9.00;99.90;;;;;;5107500;28;20233;-82
2022/04/10 10:43:20;;;;;;;9.80;9.50;;;9.00;99.90;;;;;;5112952;28;20263;-82
2022/04/10 10:45:52;;;;;;;9.60;9.30;;;9.20;99.90;;;;;;5134206;22;20250;-84
2022/04/10 10:48:40;;;;;;;9.70;9.40;;;9.20;99.90;;;;;;5101977;28;20294;-84
2022/04/10 10:51:43;;;;;;;9.60;9.30;;;8.90;99.90;;;;;;5107491;28;20236;-83
2022/04/10 10:54:14;;;;;;;10.00;9.70;;;8.50;99.90;;;;;;5051097;28;20308;-83
2022/04/10 10:56:46;;;;;;;9.77;9.47;;;8.60;99.90;;;;;;5107872;28;20233;-82
2022/04/10 10:59:32;;;;;;;9.90;9.60;;;9.00;99.90;;;;;;5110891;28;20222;-83
2022/04/10 11:02:07;;;;;;;9.77;9.47;;;9.20;99.90;;;;;;5113080;28;20264;-83
2022/04/10 11:04:39;;;;;;;10.00;9.70;;;9.10;99.90;;;;;;5115995;27;20225;-84
2022/04/10 11:07:24;;;;;;;9.70;9.40;;;9.10;99.90;;;;;;5118891;27;20240;-83
2022/04/10 11:09:58;;;;;;;9.93;9.63;;;9.30;99.90;;;;;;5111291;28;20221;-84
2022/04/10 11:12:33;;;;;;;9.83;9.53;;;9.60;99.90;;;;;;5108562;28;20235;-84
2022/04/10 11:15:06;;;;;;;9.50;9.20;;;9.60;99.90;;;;;;5109067;28;20229;-85
2022/04/10 11:17:34;;;;;;;9.87;9.57;;;9.70;99.90;;;;;;5107077;28;20287;-85
2022/04/10 11:20:05;;;;;;;10.40;10.10;;;9.60;99.90;;;;;;5103558;28;21183;-86
2022/04/10 11:22:37;;;;;;;10.03;9.73;;;9.40;99.90;;;;;;5102797;28;20235;-86
2022/04/10 11:25:16;;;;;;;9.97;9.67;;;9.50;99.90;;;;;;5103837;28;20226;-85
2022/04/10 11:27:54;;;;;;;9.87;9.57;;;9.50;99.90;;;;;;5103549;28;20229;-85
2022/04/10 11:30:25;;;;;;;10.03;9.73;;;9.50;99.90;;;;;;5104084;28;20239;-85
2022/04/10 11:32:55;;;;;;;9.80;9.50;;;9.50;99.90;;;;;;5105752;28;20235;-86
2022/04/10 11:35:32;;;;;;;9.70;9.40;;;9.60;99.90;;;;;;5104284;28;20718;-86
2022/04/10 11:38:09;;;;;;;9.70;9.40;;;9.90;99.90;;;;;;5104267;28;20217;-84
2022/04/10 11:40:50;;;;;;;10.00;9.70;;;9.50;99.90;;;;;;5103871;28;20412;-86
2022/04/10 11:43:21;;;;;;;9.77;9.47;;;8.60;99.90;;;;;;5104412;28;20241;-83
2022/04/10 11:45:50;;;;;;;9.87;9.57;;;8.70;99.90;;;;;;5105268;28;20233;-83
2022/04/10 11:48:19;;;;;;;9.67;9.37;;;9.10;99.90;;;;;;5106383;28;20232;-85
2022/04/10 11:50:47;;;;;;;9.83;9.53;;;9.40;99.90;;;;;;5111819;28;20198;-83
2022/04/10 11:53:17;;;;;;;9.80;9.50;;;9.80;99.90;;;;;;5119918;28;20255;-82
2022/04/10 11:58:37;;;;;;;9.97;9.67;;;9.60;99.90;;;;;;5103852;28;20233;-84
2022/04/10 12:01:05;;;;;;;9.77;9.47;;;9.20;99.90;;;;;;5106461;28;20316;-84
2022/04/10 12:03:39;;;;;;;9.80;9.50;;;8.80;99.90;;;;;;5106493;28;20264;-84
2022/04/10 12:06:14;;;;;;;9.80;9.50;;;8.80;99.90;;;;;;5105552;28;20237;-84
2022/04/10 12:08:48;;;;;;;9.60;9.30;;;9.30;99.90;;;;;;5105378;28;20217;-82
2022/04/10 12:11:27;;;;;;;9.70;9.40;;;9.10;99.90;;;;;;5104371;28;20224;-82
2022/04/10 12:13:57;;;;;;;9.70;9.40;;;9.20;99.90;;;;;;5109344;28;20287;-82
2022/04/10 12:16:26;;;;;;;9.80;9.50;;;9.20;99.90;;;;;;5106805;28;20236;-81
2022/04/10 12:18:56;;;;;;;9.47;9.17;;;8.60;99.90;;;;;;5104790;28;20315;-82
2022/04/10 12:21:25;;;;;;;9.83;9.53;;;8.40;99.90;;;;;;5104358;28;20244;-82
2022/04/10 12:24:05;;;;;;;9.57;9.27;;;8.50;99.90;;;;;;5105298;28;20269;-83
2022/04/10 12:26:42;;;;;;;9.83;9.53;;;8.40;99.90;;;;;;5104709;28;20244;-83
2022/04/10 12:29:11;;;;;;;9.60;9.30;;;8.50;99.90;;;;;;5104383;28;20217;-82
2022/04/10 12:31:42;;;;;;;10.00;9.70;;;8.50;99.90;;;;;;5104136;28;20248;-85
2022/04/10 12:34:11;;;;;;;9.80;9.50;;;8.30;99.90;;;;;;5103636;28;20248;-82
2022/04/10 12:36:49;;;;;;;9.70;9.40;;;8.40;99.90;;;;;;5103804;28;20238;-84
2022/04/10 12:39:27;;;;;;;9.70;9.40;;;8.50;99.90;;;;;;5104143;28;20224;-80
2022/04/10 12:42:07;;;;;;;9.80;9.50;;;8.40;99.90;;;;;;5103008;28;20344;-81
2022/04/10 12:44:36;;;;;;;9.60;9.30;;;8.30;99.90;;;;;;5103244;28;20241;-81
2022/04/10 12:47:13;;;;;;;9.67;9.37;;;8.30;99.90;;;;;;5101759;28;20241;-81
2022/04/10 12:49:41;;;;;;;9.57;9.27;;;8.10;99.90;;;;;;5102240;28;20294;-81
2022/04/10 12:52:20;;;;;;;9.70;9.40;;;7.80;99.90;;;;;;5103458;28;20229;-81
2022/04/10 12:54:50;;;;;;;9.70;9.40;;;7.80;99.90;;;;;;5103388;28;20255;-81
2022/04/10 12:57:28;;;;;;;9.67;9.37;;;7.70;99.90;;;;;;5114681;28;20272;-78
2022/04/10 12:59:56;;;;;;;9.90;9.60;;;7.70;99.90;;;;;;5116235;28;20248;-80
2022/04/10 13:02:26;;;;;;;9.77;9.47;;;7.60;99.90;;;;;;5112529;28;20303;-81
2022/04/10 13:04:58;;;;;;;9.80;9.50;;;7.50;99.90;;;;;;5106374;28;20237;-81
2022/04/10 13:07:27;;;;;;;9.80;9.50;;;7.40;99.90;;;;;;5111275;28;20259;-80
2022/04/10 13:10:12;;;;;;;9.73;9.43;;;7.40;99.90;;;;;;5107341;28;20273;-80
2022/04/10 13:12:44;;;;;;;9.80;9.50;;;7.40;99.90;;;;;;5105699;28;20229;-80
2022/04/10 13:15:14;;;;;;;9.83;9.53;;;7.50;99.90;;;;;;5105108;28;20283;-80
2022/04/10 13:17:43;;;;;;;9.70;9.40;;;7.50;99.90;;;;;;5105949;28;20229;-80
2022/04/10 13:20:13;;;;;;;9.37;9.07;;;7.50;99.90;;;;;;5102117;28;21058;-80
2022/04/10 13:22:49;;;;;;;9.70;9.40;;;7.50;99.90;;;;;;5102354;28;20236;-80
2022/04/10 13:25:17;;;;;;;9.70;9.40;;;7.50;99.90;;;;;;5103911;28;20240;-82
2022/04/10 13:27:55;;;;;;;9.70;9.40;;;7.40;99.90;;;;;;5102776;28;20229;-82
2022/04/10 13:30:25;;;;;;;9.63;9.33;;;7.40;99.90;;;;;;5103827;28;20233;-82
2022/04/10 13:32:54;;;;;;;9.93;9.63;;;7.50;99.90;;;;;;5102084;28;20312;-81
2022/04/10 13:35:23;;;;;;;10.00;9.70;;;7.40;99.90;;;;;;5102592;28;20256;-81
2022/04/10 13:37:55;;;;;;;9.90;9.60;;;7.50;99.90;;;;;;5103693;28;20263;-82
2022/04/10 13:40:25;;;;;;;9.60;9.30;;;7.60;99.90;;;;;;5102641;28;20221;-81
2022/04/10 13:42:56;;;;;;;10.00;9.70;;;7.70;99.90;;;;;;5103617;28;20239;-82
2022/04/10 13:45:26;;;;;;;9.70;9.40;;;7.70;99.90;;;;;;5104679;28;20248;-81
2022/04/10 13:47:54;;;;;;;9.90;9.60;;;7.80;99.90;;;;;;5103464;28;20229;-82
2022/04/10 13:50:24;;;;;;;9.93;9.63;;;7.80;99.90;;;;;;5103579;28;20237;-82
2022/04/10 13:52:54;;;;;;;10.03;9.73;;;8.10;99.90;;;;;;5103682;28;20210;-82
2022/04/10 13:55:22;;;;;;;9.93;9.63;;;8.30;99.90;;;;;;5103126;28;20229;-82
2022/04/10 13:57:50;;;;;;;9.97;9.67;;;8.60;99.90;;;;;;5104111;28;20233;-82
2022/04/10 14:00:23;;;;;;;10.10;9.80;;;8.50;99.90;;;;;;5103055;28;20245;-81
2022/04/10 14:02:50;;;;;;;10.30;10.00;;;8.60;99.90;;;;;;5102890;28;20233;-82
2022/04/10 14:05:19;;;;;;;10.10;9.80;;;8.70;99.90;;;;;;5103902;28;20233;-82
2022/04/10 14:07:49;;;;;;;10.20;9.90;;;8.80;99.90;;;;;;5106837;28;20233;-81
2022/04/10 14:10:18;;;;;;;10.00;9.70;;;9.00;99.90;;;;;;5108457;28;20238;-81